sensor_id;sensor_type;location;lat;lon;timestamp;pressure;altitude;pressure_sealevel;temperature;humidity
61682;BME280;47577;43.610;25.010;2024-01-25T00:00:24;100605.56;;;3.00;70.22
61682;BME280;47577;43.610;25.010;2024-01-25T00:02:50;100616.94;;;3.08;70.33
61682;BME280;47577;43.610;25.010;2024-01-25T00:05:16;100596.78;;;2.89;69.22
61682;BME280;47577;43.610;25.010;2024-01-25T00:07:49;100594.19;;;2.92;70.05
61682;BME280;47577;43.610;25.010;2024-01-25T00:10:16;100606.44;;;2.98;70.73
61682;BME280;47577;43.610;25.010;2024-01-25T00:12:42;100593.28;;;2.79;70.78
61682;BME280;47577;43.610;25.010;2024-01-25T00:15:09;100594.13;;;2.58;71.88
61682;BME280;47577;43.610;25.010;2024-01-25T00:17:36;100593.25;;;2.64;71.71
61682;BME280;47577;43.610;25.010;2024-01-25T00:20:02;100609.00;;;2.67;72.43
61682;BME280;47577;43.610;25.010;2024-01-25T00:22:28;100605.53;;;2.74;72.44
61682;BME280;47577;43.610;25.010;2024-01-25T00:24:54;100595.88;;;2.65;73.90
61682;BME280;47577;43.610;25.010;2024-01-25T00:27:19;100575.75;;;2.63;72.35
61682;BME280;47577;43.610;25.010;2024-01-25T00:29:45;100568.78;;;2.88;70.78
61682;BME280;47577;43.610;25.010;2024-01-25T00:32:11;100589.81;;;3.09;70.96
61682;BME280;47577;43.610;25.010;2024-01-25T00:34:37;100604.69;;;3.32;69.98
61682;BME280;47577;43.610;25.010;2024-01-25T00:37:03;100629.19;;;3.51;70.24
61682;BME280;47577;43.610;25.010;2024-01-25T00:39:29;100596.78;;;3.43;69.33
61682;BME280;47577;43.610;25.010;2024-01-25T00:42:02;100570.50;;;3.38;69.35
61682;BME280;47577;43.610;25.010;2024-01-25T00:44:29;100580.13;;;3.50;69.60
61682;BME280;47577;43.610;25.010;2024-01-25T00:46:55;100599.41;;;3.54;69.24
61682;BME280;47577;43.610;25.010;2024-01-25T00:49:21;100596.78;;;3.49;70.27
61682;BME280;47577;43.610;25.010;2024-01-25T00:51:47;100630.94;;;3.63;71.14
61682;BME280;47577;43.610;25.010;2024-01-25T00:54:14;100593.28;;;3.47;71.39
61682;BME280;47577;43.610;25.010;2024-01-25T00:56:41;100595.88;;;3.59;71.42
61682;BME280;47577;43.610;25.010;2024-01-25T00:59:06;100575.72;;;3.57;71.58
61682;BME280;47577;43.610;25.010;2024-01-25T01:01:32;100571.34;;;3.51;71.33
61682;BME280;47577;43.610;25.010;2024-01-25T01:03:58;100548.59;;;3.47;71.71
61682;BME280;47577;43.610;25.010;2024-01-25T01:06:25;100598.47;;;3.67;72.49
61682;BME280;47577;43.610;25.010;2024-01-25T01:08:51;100578.31;;;3.69;72.79
61682;BME280;47577;43.610;25.010;2024-01-25T01:11:18;100605.44;;;3.94;73.49
61682;BME280;47577;43.610;25.010;2024-01-25T01:13:44;100583.50;;;3.97;73.02
61682;BME280;47577;43.610;25.010;2024-01-25T01:16:10;100601.00;;;4.06;73.06
61682;BME280;47577;43.610;25.010;2024-01-25T01:18:35;100599.25;;;3.98;74.04
61682;BME280;47577;43.610;25.010;2024-01-25T01:21:02;100602.75;;;4.08;73.47
61682;BME280;47577;43.610;25.010;2024-01-25T01:23:27;100604.50;;;4.09;73.60
61682;BME280;47577;43.610;25.010;2024-01-25T01:25:53;100595.72;;;4.09;73.50
61682;BME280;47577;43.610;25.010;2024-01-25T01:28:18;100593.94;;;4.17;74.12
61682;BME280;47577;43.610;25.010;2024-01-25T01:30:44;100596.53;;;4.23;74.48
61682;BME280;47577;43.610;25.010;2024-01-25T01:33:11;100589.53;;;4.17;74.46
61682;BME280;47577;43.610;25.010;2024-01-25T01:35:36;100586.88;;;4.25;74.68
61682;BME280;47577;43.610;25.010;2024-01-25T01:38:02;100578.16;;;4.17;74.84
61682;BME280;47577;43.610;25.010;2024-01-25T01:40:28;100576.38;;;4.20;74.59
61682;BME280;47577;43.610;25.010;2024-01-25T01:43:00;100584.22;;;4.33;74.54
61682;BME280;47577;43.610;25.010;2024-01-25T01:45:27;100581.63;;;4.25;74.82
61682;BME280;47577;43.610;25.010;2024-01-25T01:47:53;100578.13;;;4.18;74.98
61682;BME280;47577;43.610;25.010;2024-01-25T01:50:19;100593.06;;;4.15;76.03
61682;BME280;47577;43.610;25.010;2024-01-25T01:52:46;100575.53;;;4.11;75.55
61682;BME280;47577;43.610;25.010;2024-01-25T01:55:12;100562.38;;;4.09;76.51
61682;BME280;47577;43.610;25.010;2024-01-25T01:57:38;100580.78;;;4.12;76.30
61682;BME280;47577;43.610;25.010;2024-01-25T02:00:07;100582.56;;;4.12;75.40
61682;BME280;47577;43.610;25.010;2024-01-25T02:02:34;100578.19;;;4.08;76.42
61682;BME280;47577;43.610;25.010;2024-01-25T02:05:00;100582.56;;;4.12;76.87
61682;BME280;47577;43.610;25.010;2024-01-25T02:07:26;100578.19;;;4.03;77.23
61682;BME280;47577;43.610;25.010;2024-01-25T02:09:52;100582.59;;;3.98;77.19
61682;BME280;47577;43.610;25.010;2024-01-25T02:12:18;100588.72;;;4.00;77.41
61682;BME280;47577;43.610;25.010;2024-01-25T02:14:43;100572.16;;;3.82;77.97
61682;BME280;47577;43.610;25.010;2024-01-25T02:17:09;100571.25;;;3.85;77.74
61682;BME280;47577;43.610;25.010;2024-01-25T02:19:35;100581.75;;;3.91;77.59
61682;BME280;47577;43.610;25.010;2024-01-25T02:22:01;100570.38;;;3.81;77.96
61682;BME280;47577;43.610;25.010;2024-01-25T02:24:29;100580.88;;;3.95;78.36
61682;BME280;47577;43.610;25.010;2024-01-25T02:26:55;100578.25;;;3.91;78.01
61682;BME280;47577;43.610;25.010;2024-01-25T02:29:21;100583.50;;;3.94;78.98
61682;BME280;47577;43.610;25.010;2024-01-25T02:31:47;100569.44;;;3.96;78.15
61682;BME280;47577;43.610;25.010;2024-01-25T02:34:12;100565.97;;;3.90;78.55
61682;BME280;47577;43.610;25.010;2024-01-25T02:36:38;100554.59;;;3.83;78.96
61682;BME280;47577;43.610;25.010;2024-01-25T02:39:03;100570.38;;;3.89;78.26
61682;BME280;47577;43.610;25.010;2024-01-25T02:41:31;100563.34;;;3.90;79.06
61682;BME280;47577;43.610;25.010;2024-01-25T02:43:57;100567.78;;;3.77;79.72
61682;BME280;47577;43.610;25.010;2024-01-25T02:46:22;100564.22;;;3.87;79.32
61682;BME280;47577;43.610;25.010;2024-01-25T02:48:48;100553.69;;;3.89;78.72
61682;BME280;47577;43.610;25.010;2024-01-25T02:51:14;100553.69;;;3.92;78.97
61682;BME280;47577;43.610;25.010;2024-01-25T02:53:40;100546.69;;;3.88;78.66
61682;BME280;47577;43.610;25.010;2024-01-25T02:56:06;100540.59;;;3.81;79.24
61682;BME280;47577;43.610;25.010;2024-01-25T02:58:33;100547.63;;;3.73;80.04
61682;BME280;47577;43.610;25.010;2024-01-25T03:00:58;100542.38;;;3.70;80.17
61682;BME280;47577;43.610;25.010;2024-01-25T03:03:24;100544.09;;;3.74;79.95
61682;BME280;47577;43.610;25.010;2024-01-25T03:05:51;100532.66;;;3.87;79.74
61682;BME280;47577;43.610;25.010;2024-01-25T03:08:17;100546.63;;;3.98;79.04
61682;BME280;47577;43.610;25.010;2024-01-25T03:10:43;100529.94;;;4.10;79.02
61682;BME280;47577;43.610;25.010;2024-01-25T03:13:08;100525.47;;;4.23;78.11
61682;BME280;47577;43.610;25.010;2024-01-25T03:15:34;100524.53;;;4.33;77.72
61682;BME280;47577;43.610;25.010;2024-01-25T03:18:00;100523.66;;;4.33;77.45
61682;BME280;47577;43.610;25.010;2024-01-25T03:20:25;100520.09;;;4.40;77.61
61682;BME280;47577;43.610;25.010;2024-01-25T03:22:51;100524.44;;;4.49;76.61
61682;BME280;47577;43.610;25.010;2024-01-25T03:25:17;100527.91;;;4.54;76.54
61682;BME280;47577;43.610;25.010;2024-01-25T03:27:42;100523.41;;;4.70;76.04
61682;BME280;47577;43.610;25.010;2024-01-25T03:30:08;100528.63;;;4.73;75.94
61682;BME280;47577;43.610;25.010;2024-01-25T03:32:35;100521.63;;;4.72;76.52
61682;BME280;47577;43.610;25.010;2024-01-25T03:35:01;100533.03;;;4.71;75.85
61682;BME280;47577;43.610;25.010;2024-01-25T03:37:27;100524.31;;;4.63;76.48
61682;BME280;47577;43.610;25.010;2024-01-25T03:39:53;100523.53;;;4.50;75.86
61682;BME280;47577;43.610;25.010;2024-01-25T03:42:18;100524.53;;;4.30;76.96
61682;BME280;47577;43.610;25.010;2024-01-25T03:44:44;100531.56;;;4.33;77.17
61682;BME280;47577;43.610;25.010;2024-01-25T03:47:10;100519.22;;;4.41;76.86
61682;BME280;47577;43.610;25.010;2024-01-25T03:49:36;100524.50;;;4.41;77.57
61682;BME280;47577;43.610;25.010;2024-01-25T03:52:04;100515.69;;;4.44;77.41
61682;BME280;47577;43.610;25.010;2024-01-25T03:54:29;100523.47;;;4.62;75.97
61682;BME280;47577;43.610;25.010;2024-01-25T03:56:55;100521.63;;;4.72;76.12
61682;BME280;47577;43.610;25.010;2024-01-25T03:59:20;100535.56;;;4.89;75.58
61682;BME280;47577;43.610;25.010;2024-01-25T04:01:46;100529.34;;;4.93;75.33
61682;BME280;47577;43.610;25.010;2024-01-25T04:04:13;100532.00;;;4.92;75.20
61682;BME280;47577;43.610;25.010;2024-01-25T04:06:41;100542.53;;;4.90;75.31
61682;BME280;47577;43.610;25.010;2024-01-25T04:09:13;100536.38;;;4.96;74.76
61682;BME280;47577;43.610;25.010;2024-01-25T04:11:42;100543.31;;;5.03;74.23
61682;BME280;47577;43.610;25.010;2024-01-25T04:14:08;100539.78;;;5.09;73.88
61682;BME280;47577;43.610;25.010;2024-01-25T04:16:33;100542.50;;;4.97;74.74
61682;BME280;47577;43.610;25.010;2024-01-25T04:18:59;100544.13;;;5.11;74.71
61682;BME280;47577;43.610;25.010;2024-01-25T04:21:26;100549.38;;;5.15;74.58
61682;BME280;47577;43.610;25.010;2024-01-25T04:23:52;100547.66;;;5.10;74.68
61682;BME280;47577;43.610;25.010;2024-01-25T04:26:17;100572.28;;;5.08;74.45
61682;BME280;47577;43.610;25.010;2024-01-25T04:28:43;100560.84;;;5.09;74.87
61682;BME280;47577;43.610;25.010;2024-01-25T04:31:09;100559.97;;;5.08;74.61
61682;BME280;47577;43.610;25.010;2024-01-25T04:33:34;100568.81;;;5.03;74.69
61682;BME280;47577;43.610;25.010;2024-01-25T04:36:00;100574.97;;;5.02;74.89
61682;BME280;47577;43.610;25.010;2024-01-25T04:38:25;100562.72;;;4.94;75.46
61682;BME280;47577;43.610;25.010;2024-01-25T04:40:51;100575.88;;;4.98;75.20
61682;BME280;47577;43.610;25.010;2024-01-25T04:43:17;100576.69;;;5.07;75.34
61682;BME280;47577;43.610;25.010;2024-01-25T04:45:42;100588.09;;;5.09;75.75
61682;BME280;47577;43.610;25.010;2024-01-25T04:48:08;100592.47;;;5.10;75.05
61682;BME280;47577;43.610;25.010;2024-01-25T04:50:34;100584.47;;;5.18;74.96
61682;BME280;47577;43.610;25.010;2024-01-25T04:53:02;100581.84;;;5.20;74.68
61682;BME280;47577;43.610;25.010;2024-01-25T04:55:28;100579.13;;;5.29;74.79
61682;BME280;47577;43.610;25.010;2024-01-25T04:57:53;100579.06;;;5.37;74.34
61682;BME280;47577;43.610;25.010;2024-01-25T05:00:22;100587.00;;;5.34;74.85
61682;BME280;47577;43.610;25.010;2024-01-25T05:02:48;100591.44;;;5.28;74.98
61682;BME280;47577;43.610;25.010;2024-01-25T05:05:14;100584.41;;;5.27;75.12
61682;BME280;47577;43.610;25.010;2024-01-25T05:07:40;100594.94;;;5.29;75.06
61682;BME280;47577;43.610;25.010;2024-01-25T05:10:06;100601.88;;;5.38;75.23
61682;BME280;47577;43.610;25.010;2024-01-25T05:12:33;100599.38;;;5.25;74.82
61682;BME280;47577;43.610;25.010;2024-01-25T05:14:59;100603.72;;;5.29;74.97
61682;BME280;47577;43.610;25.010;2024-01-25T05:17:25;100610.81;;;5.21;75.50
61682;BME280;47577;43.610;25.010;2024-01-25T05:19:51;100608.19;;;5.18;75.44
61682;BME280;47577;43.610;25.010;2024-01-25T05:22:16;100624.00;;;5.20;75.98
61682;BME280;47577;43.610;25.010;2024-01-25T05:24:42;100623.22;;;5.07;75.87
61682;BME280;47577;43.610;25.010;2024-01-25T05:27:08;100633.72;;;5.13;76.16
61682;BME280;47577;43.610;25.010;2024-01-25T05:29:33;100637.28;;;5.09;76.37
61682;BME280;47577;43.610;25.010;2024-01-25T05:31:59;100636.38;;;5.11;77.41
61682;BME280;47577;43.610;25.010;2024-01-25T05:34:25;100633.81;;;5.04;77.00
61682;BME280;47577;43.610;25.010;2024-01-25T05:36:50;100627.69;;;4.99;76.49
61682;BME280;47577;43.610;25.010;2024-01-25T05:39:16;100650.47;;;5.12;76.60
61682;BME280;47577;43.610;25.010;2024-01-25T05:41:42;100657.53;;;5.04;76.84
61682;BME280;47577;43.610;25.010;2024-01-25T05:44:12;100658.41;;;5.04;77.12
61682;BME280;47577;43.610;25.010;2024-01-25T05:46:38;100659.25;;;5.11;76.51
61682;BME280;47577;43.610;25.010;2024-01-25T05:49:03;100667.16;;;5.09;76.54
61682;BME280;47577;43.610;25.010;2024-01-25T05:51:29;100675.06;;;5.08;77.07
61682;BME280;47577;43.610;25.010;2024-01-25T05:53:54;100676.75;;;5.18;75.90
61682;BME280;47577;43.610;25.010;2024-01-25T05:56:20;100680.34;;;5.06;76.76
61682;BME280;47577;43.610;25.010;2024-01-25T05:58:46;100673.31;;;5.07;76.91
61682;BME280;47577;43.610;25.010;2024-01-25T06:01:11;100668.19;;;4.87;78.09
61682;BME280;47577;43.610;25.010;2024-01-25T06:03:37;100682.13;;;5.03;77.38
61682;BME280;47577;43.610;25.010;2024-01-25T06:06:03;100673.41;;;4.96;77.50
61682;BME280;47577;43.610;25.010;2024-01-25T06:08:28;100685.66;;;5.02;77.71
61682;BME280;47577;43.610;25.010;2024-01-25T06:10:54;100681.31;;;4.94;78.05
61682;BME280;47577;43.610;25.010;2024-01-25T06:13:20;100676.03;;;4.96;78.01
61682;BME280;47577;43.610;25.010;2024-01-25T06:15:45;100688.38;;;4.89;78.27
61682;BME280;47577;43.610;25.010;2024-01-25T06:18:11;100675.25;;;4.82;77.54
61682;BME280;47577;43.610;25.010;2024-01-25T06:20:36;100684.84;;;4.90;79.08
61682;BME280;47577;43.610;25.010;2024-01-25T06:23:02;100684.00;;;4.85;78.31
61682;BME280;47577;43.610;25.010;2024-01-25T06:25:27;100672.59;;;4.82;79.00
61682;BME280;47577;43.610;25.010;2024-01-25T06:27:56;100686.72;;;4.70;78.90
61682;BME280;47577;43.610;25.010;2024-01-25T06:30:23;100681.38;;;4.81;78.70
61682;BME280;47577;43.610;25.010;2024-01-25T06:32:48;100685.78;;;4.83;79.68
61682;BME280;47577;43.610;25.010;2024-01-25T06:35:14;100683.13;;;4.85;78.95
61682;BME280;47577;43.610;25.010;2024-01-25T06:37:40;100672.63;;;4.79;78.89
61682;BME280;47577;43.610;25.010;2024-01-25T06:40:06;100674.31;;;4.87;78.77
61682;BME280;47577;43.610;25.010;2024-01-25T06:42:32;100676.91;;;4.95;78.39
61682;BME280;47577;43.610;25.010;2024-01-25T06:44:57;100675.94;;;5.05;78.76
61682;BME280;47577;43.610;25.010;2024-01-25T06:47:23;100669.81;;;5.03;78.45
61682;BME280;47577;43.610;25.010;2024-01-25T06:49:48;100668.91;;;5.13;77.93
61682;BME280;47577;43.610;25.010;2024-01-25T06:52:17;100666.34;;;5.01;77.89
61682;BME280;47577;43.610;25.010;2024-01-25T06:54:43;100668.13;;;4.98;77.88
61682;BME280;47577;43.610;25.010;2024-01-25T06:57:08;100678.66;;;5.01;78.64
61682;BME280;47577;43.610;25.010;2024-01-25T06:59:34;100661.91;;;5.05;78.49
61682;BME280;47577;43.610;25.010;2024-01-25T07:02:00;100671.56;;;5.09;78.42
61682;BME280;47577;43.610;25.010;2024-01-25T07:04:27;100675.00;;;5.17;77.81
61682;BME280;47577;43.610;25.010;2024-01-25T07:06:53;100667.09;;;5.19;77.84
61682;BME280;47577;43.610;25.010;2024-01-25T07:09:18;100667.91;;;5.27;77.31
61682;BME280;47577;43.610;25.010;2024-01-25T07:11:44;100674.13;;;5.17;77.98
61682;BME280;47577;43.610;25.010;2024-01-25T07:14:10;100682.13;;;5.06;78.18
61682;BME280;47577;43.610;25.010;2024-01-25T07:16:36;100669.03;;;4.89;79.05
61682;BME280;47577;43.610;25.010;2024-01-25T07:19:02;100675.19;;;4.91;79.09
61682;BME280;47577;43.610;25.010;2024-01-25T07:21:28;100669.03;;;4.90;78.91
61682;BME280;47577;43.610;25.010;2024-01-25T07:24:02;100680.47;;;4.92;79.65
61682;BME280;47577;43.610;25.010;2024-01-25T07:26:28;100666.38;;;4.92;79.67
61682;BME280;47577;43.610;25.010;2024-01-25T07:28:53;100657.59;;;4.94;79.28
61682;BME280;47577;43.610;25.010;2024-01-25T07:31:26;100675.13;;;4.97;79.03
61682;BME280;47577;43.610;25.010;2024-01-25T07:33:53;100674.25;;;4.97;78.85
61682;BME280;47577;43.610;25.010;2024-01-25T07:36:19;100673.38;;;5.01;79.20
61682;BME280;47577;43.610;25.010;2024-01-25T07:38:44;100681.31;;;4.93;79.39
61682;BME280;47577;43.610;25.010;2024-01-25T07:41:12;100687.41;;;5.03;78.77
61682;BME280;47577;43.610;25.010;2024-01-25T07:43:38;100672.44;;;5.08;78.85
61682;BME280;47577;43.610;25.010;2024-01-25T07:46:04;100686.50;;;5.05;78.71
61682;BME280;47577;43.610;25.010;2024-01-25T07:48:29;100674.25;;;5.00;78.66
61682;BME280;47577;43.610;25.010;2024-01-25T07:50:56;100683.91;;;5.04;78.69
61682;BME280;47577;43.610;25.010;2024-01-25T07:53:22;100682.13;;;5.06;78.08
61682;BME280;47577;43.610;25.010;2024-01-25T07:55:47;100681.22;;;5.05;78.56
61682;BME280;47577;43.610;25.010;2024-01-25T07:58:15;100692.66;;;5.09;78.89
61682;BME280;47577;43.610;25.010;2024-01-25T08:00:41;100684.78;;;5.04;78.26
61682;BME280;47577;43.610;25.010;2024-01-25T08:03:08;100696.16;;;5.08;78.03
61682;BME280;47577;43.610;25.010;2024-01-25T08:05:33;100692.63;;;5.13;77.78
61682;BME280;47577;43.610;25.010;2024-01-25T08:07:59;100694.34;;;5.13;77.94
61682;BME280;47577;43.610;25.010;2024-01-25T08:10:25;100689.06;;;5.18;77.39
61682;BME280;47577;43.610;25.010;2024-01-25T08:12:50;100701.34;;;5.22;77.09
61682;BME280;47577;43.610;25.010;2024-01-25T08:15:16;100689.00;;;5.28;76.68
61682;BME280;47577;43.610;25.010;2024-01-25T08:17:42;100684.56;;;5.32;76.39
61682;BME280;47577;43.610;25.010;2024-01-25T08:20:08;100689.78;;;5.40;76.15
61682;BME280;47577;43.610;25.010;2024-01-25T08:22:34;100682.72;;;5.45;75.53
61682;BME280;47577;43.610;25.010;2024-01-25T08:25:00;100684.50;;;5.43;75.97
61682;BME280;47577;43.610;25.010;2024-01-25T08:27:26;100687.94;;;5.49;75.47
61682;BME280;47577;43.610;25.010;2024-01-25T08:29:51;100680.03;;;5.49;75.14
61682;BME280;47577;43.610;25.010;2024-01-25T08:32:17;100698.44;;;5.57;75.13
61682;BME280;47577;43.610;25.010;2024-01-25T08:34:42;100676.47;;;5.54;75.39
61682;BME280;47577;43.610;25.010;2024-01-25T08:37:08;100685.28;;;5.54;75.32
61682;BME280;47577;43.610;25.010;2024-01-25T08:39:34;100687.91;;;5.56;74.98
61682;BME280;47577;43.610;25.010;2024-01-25T08:41:59;100682.63;;;5.57;74.38
61682;BME280;47577;43.610;25.010;2024-01-25T08:44:27;100672.06;;;5.56;74.47
61682;BME280;47577;43.610;25.010;2024-01-25T08:46:53;100679.88;;;5.66;74.74
61682;BME280;47577;43.610;25.010;2024-01-25T08:49:19;100692.19;;;5.69;75.57
61682;BME280;47577;43.610;25.010;2024-01-25T08:51:44;100675.41;;;5.73;74.93
61682;BME280;47577;43.610;25.010;2024-01-25T08:54:10;100674.50;;;5.79;74.67
61682;BME280;47577;43.610;25.010;2024-01-25T08:56:35;100684.13;;;5.83;74.18
61682;BME280;47577;43.610;25.010;2024-01-25T08:59:01;100684.88;;;5.94;73.74
61682;BME280;47577;43.610;25.010;2024-01-25T09:01:27;100676.13;;;5.89;73.50
61682;BME280;47577;43.610;25.010;2024-01-25T09:03:52;100677.88;;;5.96;73.55
61682;BME280;47577;43.610;25.010;2024-01-25T09:06:19;100684.84;;;6.00;73.62
61682;BME280;47577;43.610;25.010;2024-01-25T09:08:45;100691.94;;;5.98;73.61
61682;BME280;47577;43.610;25.010;2024-01-25T09:11:10;100681.22;;;6.12;73.50
61682;BME280;47577;43.610;25.010;2024-01-25T09:13:36;100709.34;;;6.15;73.36
61682;BME280;47577;43.610;25.010;2024-01-25T09:16:01;100687.22;;;6.23;72.79
61682;BME280;47577;43.610;25.010;2024-01-25T09:18:27;100684.50;;;6.31;72.28
61682;BME280;47577;43.610;25.010;2024-01-25T09:20:53;100698.56;;;6.35;72.47
61682;BME280;47577;43.610;25.010;2024-01-25T09:23:18;100695.03;;;6.34;72.45
61682;BME280;47577;43.610;25.010;2024-01-25T09:25:45;100683.66;;;6.29;72.88
61682;BME280;47577;43.610;25.010;2024-01-25T09:28:11;100686.22;;;6.38;72.72
61682;BME280;47577;43.610;25.010;2024-01-25T09:30:38;100683.59;;;6.35;72.48
61682;BME280;47577;43.610;25.010;2024-01-25T09:33:05;100696.66;;;6.46;72.66
61682;BME280;47577;43.610;25.010;2024-01-25T09:35:31;100680.69;;;6.57;71.90
61682;BME280;47577;43.610;25.010;2024-01-25T09:37:56;100676.47;;;6.44;72.41
61682;BME280;47577;43.610;25.010;2024-01-25T09:40:23;100670.38;;;6.37;73.22
61682;BME280;47577;43.610;25.010;2024-01-25T09:42:52;100667.72;;;6.38;71.79
61682;BME280;47577;43.610;25.010;2024-01-25T09:45:18;100668.63;;;6.36;72.34
61682;BME280;47577;43.610;25.010;2024-01-25T09:47:45;100666.03;;;6.30;72.63
61682;BME280;47577;43.610;25.010;2024-01-25T09:50:11;100670.25;;;6.45;72.17
61682;BME280;47577;43.610;25.010;2024-01-25T09:52:38;100658.75;;;6.50;72.60
61682;BME280;47577;43.610;25.010;2024-01-25T09:55:05;100670.16;;;6.54;72.96
61682;BME280;47577;43.610;25.010;2024-01-25T09:57:35;100659.47;;;6.63;72.24
61682;BME280;47577;43.610;25.010;2024-01-25T10:00:04;100657.63;;;6.70;72.48
61682;BME280;47577;43.610;25.010;2024-01-25T10:02:31;100659.34;;;6.72;71.80
61682;BME280;47577;43.610;25.010;2024-01-25T10:04:57;100660.13;;;6.79;71.76
61682;BME280;47577;43.610;25.010;2024-01-25T10:07:36;100651.31;;;6.78;71.82
61682;BME280;47577;43.610;25.010;2024-01-25T10:10:02;100645.19;;;6.76;71.99
61682;BME280;47577;43.610;25.010;2024-01-25T10:12:30;100651.22;;;6.86;71.07
61682;BME280;47577;43.610;25.010;2024-01-25T10:14:56;100648.66;;;6.80;71.63
61682;BME280;47577;43.610;25.010;2024-01-25T10:17:21;100636.34;;;6.79;72.13
61682;BME280;47577;43.610;25.010;2024-01-25T10:19:47;100646.59;;;7.01;71.17
61682;BME280;47577;43.610;25.010;2024-01-25T10:22:12;100640.50;;;6.97;70.97
61682;BME280;47577;43.610;25.010;2024-01-25T10:24:41;100646.50;;;7.08;71.34
61682;BME280;47577;43.610;25.010;2024-01-25T10:27:08;100640.47;;;6.99;72.06
61682;BME280;47577;43.610;25.010;2024-01-25T10:29:36;100642.06;;;7.09;70.87
61682;BME280;47577;43.610;25.010;2024-01-25T10:32:03;100633.16;;;7.16;70.77
61682;BME280;47577;43.610;25.010;2024-01-25T10:34:28;100627.00;;;7.12;71.01
61682;BME280;47577;43.610;25.010;2024-01-25T10:36:55;100625.09;;;7.22;71.07
61682;BME280;47577;43.610;25.010;2024-01-25T10:39:21;100627.56;;;7.35;71.61
61682;BME280;47577;43.610;25.010;2024-01-25T10:41:47;100611.72;;;7.31;71.84
61682;BME280;47577;43.610;25.010;2024-01-25T10:44:16;100585.31;;;7.28;71.21
61682;BME280;47577;43.610;25.010;2024-01-25T10:46:47;100603.53;;;7.47;71.33
61682;BME280;47577;43.610;25.010;2024-01-25T10:49:13;100594.72;;;7.45;70.46
61682;BME280;47577;43.610;25.010;2024-01-25T10:51:40;100598.28;;;7.44;70.60
61682;BME280;47577;43.610;25.010;2024-01-25T10:54:09;100580.53;;;7.50;71.34
61682;BME280;47577;43.610;25.010;2024-01-25T10:56:37;100596.00;;;7.72;70.91
61682;BME280;47577;43.610;25.010;2024-01-25T10:59:03;100571.88;;;7.89;69.47
61682;BME280;47577;43.610;25.010;2024-01-25T11:01:29;100563.66;;;8.01;66.63
61682;BME280;47577;43.610;25.010;2024-01-25T11:03:54;100572.59;;;7.97;67.16
61682;BME280;47577;43.610;25.010;2024-01-25T11:06:22;100551.16;;;8.08;67.86
61682;BME280;47577;43.610;25.010;2024-01-25T11:08:48;100536.91;;;8.15;68.03
61682;BME280;47577;43.610;25.010;2024-01-25T11:11:14;100531.31;;;8.28;67.52
61682;BME280;47577;43.610;25.010;2024-01-25T11:13:43;100535.72;;;8.29;68.36
61682;BME280;47577;43.610;25.010;2024-01-25T11:16:17;100546.97;;;8.38;67.12
61682;BME280;47577;43.610;25.010;2024-01-25T11:18:54;100533.63;;;8.45;66.25
61682;BME280;47577;43.610;25.010;2024-01-25T11:21:27;100538.13;;;8.39;67.38
61682;BME280;47577;43.610;25.010;2024-01-25T11:24:03;100532.13;;;8.31;66.98
61682;BME280;47577;43.610;25.010;2024-01-25T11:26:31;100526.84;;;8.31;67.52
61682;BME280;47577;43.610;25.010;2024-01-25T11:28:57;100531.41;;;8.24;66.91
61682;BME280;47577;43.610;25.010;2024-01-25T11:31:26;100526.19;;;8.20;66.81
61682;BME280;47577;43.610;25.010;2024-01-25T11:33:59;100531.63;;;8.14;66.39
61682;BME280;47577;43.610;25.010;2024-01-25T11:36:26;100539.50;;;8.17;67.58
61682;BME280;47577;43.610;25.010;2024-01-25T11:38:52;100534.44;;;8.06;68.19
61682;BME280;47577;43.610;25.010;2024-01-25T11:41:18;100525.63;;;8.05;69.11
61682;BME280;47577;43.610;25.010;2024-01-25T11:43:44;100538.88;;;8.05;68.91
61682;BME280;47577;43.610;25.010;2024-01-25T11:46:10;100518.66;;;8.00;69.24
61682;BME280;47577;43.610;25.010;2024-01-25T11:48:39;100522.28;;;7.97;69.91
61682;BME280;47577;43.610;25.010;2024-01-25T11:51:06;100532.78;;;8.02;69.95
61682;BME280;47577;43.610;25.010;2024-01-25T11:53:31;100517.94;;;7.93;69.16
61682;BME280;47577;43.610;25.010;2024-01-25T11:55:57;100507.13;;;8.04;68.56
61682;BME280;47577;43.610;25.010;2024-01-25T11:58:23;100526.66;;;7.98;69.38
61682;BME280;47577;43.610;25.010;2024-01-25T12:00:49;100509.75;;;8.05;68.48
61682;BME280;47577;43.610;25.010;2024-01-25T12:03:16;100508.91;;;8.03;69.35
61682;BME280;47577;43.610;25.010;2024-01-25T12:05:42;100537.84;;;8.11;68.61
61682;BME280;47577;43.610;25.010;2024-01-25T12:08:09;100524.53;;;8.14;69.38
61682;BME280;47577;43.610;25.010;2024-01-25T12:10:37;100530.28;;;8.35;67.95
61682;BME280;47577;43.610;25.010;2024-01-25T12:13:03;100511.63;;;8.39;68.58
61682;BME280;47577;43.610;25.010;2024-01-25T12:15:32;100511.03;;;8.27;67.75
61682;BME280;47577;43.610;25.010;2024-01-25T12:17:58;100496.00;;;8.27;68.87
61682;BME280;47577;43.610;25.010;2024-01-25T12:20:24;100518.97;;;8.28;68.83
61682;BME280;47577;43.610;25.010;2024-01-25T12:22:50;100542.72;;;8.31;69.41
61682;BME280;47577;43.610;25.010;2024-01-25T12:25:15;100519.94;;;8.22;68.93
61682;BME280;47577;43.610;25.010;2024-01-25T12:27:41;100522.69;;;8.18;68.92
61682;BME280;47577;43.610;25.010;2024-01-25T12:30:07;100522.63;;;8.21;69.25
61682;BME280;47577;43.610;25.010;2024-01-25T12:32:34;100515.47;;;8.26;68.63
61682;BME280;47577;43.610;25.010;2024-01-25T12:35:00;100518.88;;;8.31;68.38
61682;BME280;47577;43.610;25.010;2024-01-25T12:37:27;100511.66;;;8.38;68.26
61682;BME280;47577;43.610;25.010;2024-01-25T12:39:53;100540.84;;;8.36;69.24
61682;BME280;47577;43.610;25.010;2024-01-25T12:42:20;100528.47;;;8.37;68.85
61682;BME280;47577;43.610;25.010;2024-01-25T12:44:46;100515.22;;;8.37;68.75